Time;durP1;ratioP1;P1;durP2;ratioP2;P2;SDS_P1;SDS_P2;PMS_P1;PMS_P2;Temp;Humidity;BMP_temperature;BMP_pressure;BME280_temperature;BME280_humidity;BME280_pressure;Samples;Min_cycle;Max_cycle;Signal;HPM_P1;HPM_P2
2022/05/09 00:01:56;;;;;;;12.55;4.72;;;7.40;99.90;;;;;;2222723;64;20324;-70
2022/05/09 00:04:36;;;;;;;17.90;4.70;;;7.30;99.90;;;;;;2216133;64;20271;-69
2022/05/09 00:07:12;;;;;;;15.07;4.90;;;7.30;99.90;;;;;;2208442;64;20310;-70
2022/05/09 00:09:51;;;;;;;17.67;5.22;;;7.30;99.90;;;;;;2217712;64;20327;-71
2022/05/09 00:12:30;;;;;;;13.82;5.63;;;7.30;99.90;;;;;;2219206;64;20165;-70
2022/05/09 00:15:07;;;;;;;17.95;4.82;;;7.40;99.90;;;;;;2218521;64;20729;-70
2022/05/09 00:17:45;;;;;;;17.00;5.30;;;7.20;99.90;;;;;;2219973;64;20219;-71
2022/05/09 00:20:25;;;;;;;12.48;4.97;;;7.20;99.90;;;;;;2217083;64;20310;-70
2022/05/09 00:23:01;;;;;;;16.02;5.15;;;7.10;99.90;;;;;;2222610;64;20601;-71
2022/05/09 00:25:38;;;;;;;18.77;5.80;;;7.10;99.90;;;;;;2223046;64;20180;-70
2022/05/09 00:28:15;;;;;;;11.38;4.78;;;7.10;99.90;;;;;;2221534;64;20197;-70
2022/05/09 00:30:57;;;;;;;21.63;4.90;;;7.10;99.90;;;;;;2215395;64;20584;-70
2022/05/09 00:33:38;;;;;;;10.02;4.70;;;7.10;99.90;;;;;;2209842;64;20267;-68
2022/05/09 00:36:18;;;;;;;12.15;4.65;;;7.00;99.90;;;;;;2217727;64;20159;-70
2022/05/09 00:38:54;;;;;;;9.32;4.95;;;7.10;99.90;;;;;;2222957;64;20256;-70
2022/05/09 00:41:40;;;;;;;13.68;4.90;;;7.10;99.90;;;;;;2217433;64;20594;-70
2022/05/09 00:44:16;;;;;;;;;;;7.10;99.90;;;;;;2217545;64;20176;-69
2022/05/09 00:46:56;;;;;;;11.80;4.80;;;7.10;99.90;;;;;;2219556;64;20045;-71
2022/05/09 00:49:48;;;;;;;16.90;4.68;;;7.10;99.90;;;;;;2215311;64;20623;-71
2022/05/09 00:52:43;;;;;;;15.48;5.00;;;7.00;99.90;;;;;;2215263;64;20222;-71
2022/05/09 00:55:37;;;;;;;15.10;6.15;;;7.00;99.90;;;;;;2207528;64;20156;-70
2022/05/09 00:58:28;;;;;;;11.30;5.05;;;7.00;99.90;;;;;;2217189;64;20226;-71
2022/05/09 01:01:10;;;;;;;16.08;5.68;;;7.10;99.90;;;;;;2222746;64;20171;-71
2022/05/09 01:04:10;;;;;;;12.82;5.15;;;7.10;99.90;;;;;;2222868;64;20236;-71
2022/05/09 01:06:49;;;;;;;9.88;4.38;;;7.10;99.90;;;;;;2207660;64;20278;-70
2022/05/09 01:09:30;;;;;;;14.52;4.90;;;7.10;99.90;;;;;;2214636;64;20672;-71
2022/05/09 01:12:10;;;;;;;16.88;5.80;;;7.00;99.90;;;;;;2214720;64;20671;-70
2022/05/09 01:14:49;;;;;;;12.60;4.88;;;7.10;99.90;;;;;;2215950;64;20176;-70
2022/05/09 01:17:28;;;;;;;18.58;5.18;;;7.00;99.90;;;;;;2215883;64;20172;-71
2022/05/09 01:20:08;;;;;;;14.57;5.32;;;7.00;99.90;;;;;;2220527;64;20193;-69
2022/05/09 01:22:44;;;;;;;13.38;4.97;;;7.00;99.90;;;;;;2223678;64;20261;-70
2022/05/09 01:25:21;;;;;;;14.32;5.13;;;7.00;99.90;;;;;;2224392;64;20176;-70
2022/05/09 01:27:59;;;;;;;16.90;6.32;;;6.90;99.90;;;;;;2223334;64;20340;-69
2022/05/09 01:30:59;;;;;;;15.02;5.45;;;6.90;99.90;;;;;;2220661;64;20171;-69
2022/05/09 01:33:43;;;;;;;13.93;4.90;;;6.90;99.90;;;;;;2220022;64;20371;-70
2022/05/09 01:36:29;;;;;;;13.75;4.60;;;6.90;99.90;;;;;;2215690;64;20180;-69
2022/05/09 01:39:11;;;;;;;11.70;4.93;;;6.90;99.90;;;;;;2220166;64;20245;-69
2022/05/09 01:41:49;;;;;;;11.30;5.10;;;6.90;99.90;;;;;;2222685;64;20178;-69
2022/05/09 01:44:27;;;;;;;17.00;4.78;;;6.80;99.90;;;;;;2215076;64;20213;-70
2022/05/09 01:49:59;;;;;;;12.80;5.82;;;7.20;99.90;;;;;;2221539;64;20183;-69
2022/05/09 01:52:36;;;;;;;12.32;4.25;;;6.70;99.90;;;;;;2222882;64;20218;-69
2022/05/09 01:55:13;;;;;;;20.52;5.45;;;6.70;99.90;;;;;;2220116;64;20183;-70
2022/05/09 01:57:50;;;;;;;18.20;4.70;;;6.70;99.90;;;;;;2222487;64;20779;-69
2022/05/09 02:00:28;;;;;;;15.80;5.43;;;6.80;99.90;;;;;;2217200;64;20338;-70
2022/05/09 02:03:05;;;;;;;20.15;6.03;;;6.70;99.90;;;;;;2222063;64;20188;-69
2022/05/09 02:05:43;;;;;;;17.85;4.57;;;6.80;99.90;;;;;;2216352;64;20219;-71
2022/05/09 02:08:25;;;;;;;14.20;4.93;;;6.70;99.90;;;;;;2218530;64;20803;-70
2022/05/09 02:11:06;;;;;;;12.32;4.63;;;6.70;99.90;;;;;;2219063;64;20275;-70
2022/05/09 02:13:47;;;;;;;10.77;4.32;;;6.70;99.90;;;;;;2214787;64;20243;-70
2022/05/09 02:16:28;;;;;;;20.40;5.40;;;6.60;99.90;;;;;;2216882;64;20167;-69
2022/05/09 02:19:07;;;;;;;14.75;6.30;;;6.60;99.90;;;;;;2222237;64;20175;-70
2022/05/09 02:21:45;;;;;;;14.25;5.63;;;6.60;99.90;;;;;;2216518;64;20327;-70
2022/05/09 02:24:26;;;;;;;14.70;5.60;;;6.60;99.90;;;;;;2214784;64;20184;-70
2022/05/09 02:27:04;;;;;;;21.40;6.43;;;6.60;99.90;;;;;;2215405;64;20251;-70
2022/05/09 02:29:42;;;;;;;18.48;6.25;;;6.60;99.90;;;;;;2214736;64;20186;-69
2022/05/09 02:32:18;;;;;;;15.73;5.70;;;6.60;99.90;;;;;;2222072;64;20156;-70
2022/05/09 02:34:56;;;;;;;8.77;4.68;;;6.50;99.90;;;;;;2223556;64;20263;-70
2022/05/09 02:37:37;;;;;;;19.10;5.45;;;6.50;99.90;;;;;;2223355;64;20156;-70
2022/05/09 02:40:19;;;;;;;13.20;5.25;;;6.50;99.90;;;;;;2223695;64;20171;-70
2022/05/09 02:42:59;;;;;;;10.27;5.30;;;6.50;99.90;;;;;;2223364;64;20185;-70
2022/05/09 02:45:41;;;;;;;13.38;5.03;;;6.50;99.90;;;;;;2223483;64;20201;-70
2022/05/09 02:48:20;;;;;;;17.02;5.30;;;6.50;99.90;;;;;;2223494;64;20163;-70
2022/05/09 02:51:00;;;;;;;16.05;5.65;;;6.50;99.90;;;;;;2223727;64;20168;-70
2022/05/09 02:53:40;;;;;;;15.20;5.72;;;6.50;99.90;;;;;;2220203;64;20621;-70
2022/05/09 02:56:16;;;;;;;16.02;5.07;;;6.50;99.90;;;;;;2215860;64;20214;-70
2022/05/09 02:58:55;;;;;;;12.27;6.00;;;6.50;99.90;;;;;;2222655;64;20211;-70
2022/05/09 03:01:36;;;;;;;17.00;6.05;;;6.50;99.90;;;;;;2223409;64;20191;-69
2022/05/09 03:07:15;;;;;;;19.55;6.35;;;6.50;99.90;;;;;;2223526;64;20171;-70
2022/05/09 03:09:55;;;;;;;14.32;5.80;;;6.40;99.90;;;;;;2208211;65;20253;-70
2022/05/09 03:12:36;;;;;;;17.02;5.70;;;6.40;99.90;;;;;;2216001;64;20180;-70
2022/05/09 03:15:17;;;;;;;16.98;5.88;;;6.40;99.90;;;;;;2216156;64;20239;-69
2022/05/09 03:17:56;;;;;;;20.02;6.72;;;6.40;99.90;;;;;;2215979;64;20722;-70
2022/05/09 03:20:34;;;;;;;15.23;6.25;;;6.40;99.90;;;;;;2216279;64;20195;-70
2022/05/09 03:23:13;;;;;;;14.18;5.35;;;6.40;99.90;;;;;;2214992;64;20364;-70
2022/05/09 03:25:53;;;;;;;13.40;5.50;;;6.40;99.90;;;;;;2223044;64;20589;-69
2022/05/09 03:28:33;;;;;;;10.80;5.05;;;6.30;99.90;;;;;;2219790;64;20175;-70
2022/05/09 03:31:10;;;;;;;13.82;5.57;;;6.40;99.90;;;;;;2215646;64;20746;-70
2022/05/09 03:33:46;;;;;;;14.80;6.05;;;6.30;99.90;;;;;;2210093;64;20192;-71
2022/05/09 03:36:25;;;;;;;12.52;5.90;;;6.30;99.90;;;;;;2216068;64;20228;-70
2022/05/09 03:39:04;;;;;;;19.77;6.20;;;6.30;99.90;;;;;;2215695;64;20584;-70
2022/05/09 03:41:43;;;;;;;13.20;6.00;;;6.30;99.90;;;;;;2215901;64;20164;-69
2022/05/09 03:44:23;;;;;;;16.00;6.35;;;6.20;99.90;;;;;;2215235;64;20161;-71
2022/05/09 03:47:06;;;;;;;17.05;6.28;;;6.20;99.90;;;;;;2219269;64;20168;-70
2022/05/09 03:49:43;;;;;;;16.58;6.28;;;6.20;99.90;;;;;;2215606;64;20277;-70
2022/05/09 03:52:19;;;;;;;16.80;6.38;;;6.20;99.90;;;;;;2216380;64;20184;-69
2022/05/09 03:54:58;;;;;;;15.05;6.55;;;6.20;99.90;;;;;;2221262;64;20560;-69
2022/05/09 03:57:52;;;;;;;17.90;7.05;;;6.10;99.90;;;;;;2221262;64;20168;-69
2022/05/09 04:00:32;;;;;;;12.40;5.88;;;6.50;99.90;;;;;;2215509;64;20194;-70
2022/05/09 04:03:10;;;;;;;18.60;6.97;;;6.10;99.90;;;;;;2216000;64;20215;-69
2022/05/09 04:05:49;;;;;;;22.58;8.07;;;6.10;99.90;;;;;;2222226;64;20171;-70
2022/05/09 04:08:27;;;;;;;17.33;7.20;;;6.10;99.90;;;;;;2223195;64;20229;-70
2022/05/09 04:11:07;;;;;;;18.02;6.47;;;6.10;99.90;;;;;;2223261;64;20232;-70
2022/05/09 04:13:48;;;;;;;17.48;7.15;;;6.10;99.90;;;;;;2218028;64;20181;-70
2022/05/09 04:19:23;;;;;;;15.13;6.88;;;6.10;99.90;;;;;;2216476;64;22218;-70
2022/05/09 04:22:02;;;;;;;15.23;7.40;;;6.10;99.90;;;;;;2222960;64;20321;-69
2022/05/09 04:24:41;;;;;;;16.50;7.90;;;6.10;99.90;;;;;;2220024;64;20163;-70
2022/05/09 04:27:20;;;;;;;15.05;6.45;;;6.10;99.90;;;;;;2222995;64;20218;-70
2022/05/09 04:29:58;;;;;;;18.23;6.55;;;6.10;99.90;;;;;;2222346;64;20159;-69
2022/05/09 04:32:38;;;;;;;11.85;6.55;;;6.20;99.90;;;;;;2222973;64;20346;-70
2022/05/09 04:35:20;;;;;;;14.80;6.68;;;6.20;99.90;;;;;;2217912;64;20208;-69
2022/05/09 04:38:02;;;;;;;15.18;6.15;;;6.20;99.90;;;;;;2221393;64;20676;-69
2022/05/09 04:40:41;;;;;;;13.55;6.88;;;6.20;99.90;;;;;;2223067;64;20184;-70
2022/05/09 04:43:23;;;;;;;18.45;6.55;;;6.30;99.90;;;;;;2222033;64;20756;-69
2022/05/09 04:46:04;;;;;;;17.20;8.13;;;6.30;99.90;;;;;;2215318;64;20202;-71
2022/05/09 04:48:42;;;;;;;13.05;6.80;;;6.60;99.90;;;;;;2215675;64;20176;-70
2022/05/09 04:51:19;;;;;;;17.20;7.80;;;6.40;99.90;;;;;;2215280;64;20277;-70
2022/05/09 04:53:59;;;;;;;25.02;9.02;;;6.50;99.90;;;;;;2219845;64;20171;-69
2022/05/09 04:56:36;;;;;;;17.60;9.48;;;6.50;99.90;;;;;;2222903;64;20703;-69
2022/05/09 04:59:12;;;;;;;13.50;6.90;;;6.50;99.90;;;;;;2222028;64;20324;-70
2022/05/09 05:01:49;;;;;;;18.88;7.80;;;6.60;99.90;;;;;;2216947;64;20163;-71
2022/05/09 05:04:27;;;;;;;17.70;8.07;;;6.70;99.90;;;;;;2222683;64;20195;-70
2022/05/09 05:07:06;;;;;;;19.42;8.25;;;6.70;99.90;;;;;;2217682;64;20196;-70
2022/05/09 05:09:45;;;;;;;14.07;7.60;;;6.80;99.90;;;;;;2215315;64;20328;-70
2022/05/09 05:12:25;;;;;;;19.00;7.75;;;6.90;99.90;;;;;;2215179;64;20184;-69
2022/05/09 05:15:08;;;;;;;14.85;7.07;;;6.90;99.90;;;;;;2220789;64;20209;-70
2022/05/09 05:17:45;;;;;;;20.52;7.82;;;7.00;99.90;;;;;;2215111;64;20160;-70
2022/05/09 05:20:24;;;;;;;18.45;7.93;;;7.10;99.90;;;;;;2212672;64;20765;-70
2022/05/09 05:23:01;;;;;;;17.00;7.88;;;7.10;99.90;;;;;;2215468;64;20248;-70
2022/05/09 05:25:40;;;;;;;15.07;7.40;;;7.20;99.90;;;;;;2214745;64;20172;-70
2022/05/09 05:28:20;;;;;;;16.33;7.32;;;7.20;99.90;;;;;;2215078;64;20677;-69
2022/05/09 05:31:09;;;;;;;16.30;7.15;;;7.30;99.90;;;;;;2215044;64;20317;-70
2022/05/09 05:33:55;;;;;;;12.57;6.82;;;7.30;99.90;;;;;;2215073;64;20586;-70
2022/05/09 05:36:32;;;;;;;14.38;7.18;;;7.40;99.90;;;;;;2215248;64;20656;-70
2022/05/09 05:39:13;;;;;;;16.20;6.97;;;7.50;99.90;;;;;;2213025;64;20205;-69
2022/05/09 05:41:51;;;;;;;17.65;6.45;;;7.50;99.90;;;;;;2213911;64;20186;-70
2022/05/09 05:44:32;;;;;;;12.60;6.32;;;7.60;99.90;;;;;;2212478;64;20171;-71
2022/05/09 05:47:13;;;;;;;13.07;7.38;;;7.70;99.90;;;;;;2212967;64;20285;-71
2022/05/09 05:49:50;;;;;;;22.23;7.20;;;7.80;99.90;;;;;;2214588;64;20180;-71
2022/05/09 05:52:27;;;;;;;19.23;7.35;;;7.80;99.90;;;;;;2220588;64;20759;-67
2022/05/09 05:55:04;;;;;;;12.73;6.57;;;7.90;99.90;;;;;;2216335;64;20257;-71
2022/05/09 05:57:44;;;;;;;10.63;5.70;;;8.00;99.90;;;;;;2215054;64;20305;-70
2022/05/09 06:00:23;;;;;;;13.18;7.20;;;8.10;99.90;;;;;;2214700;64;20646;-69
2022/05/09 06:03:06;;;;;;;15.90;6.50;;;8.10;99.90;;;;;;2215185;64;20211;-69
2022/05/09 06:05:47;;;;;;;16.48;6.88;;;8.20;99.90;;;;;;2213915;64;20782;-71
2022/05/09 06:08:26;;;;;;;10.18;6.22;;;8.30;99.90;;;;;;2216054;64;20168;-69
2022/05/09 06:11:06;;;;;;;13.52;6.35;;;8.30;99.90;;;;;;2215391;64;20674;-69
2022/05/09 06:13:46;;;;;;;15.25;5.47;;;8.40;99.90;;;;;;2215620;64;20256;-72
2022/05/09 06:16:25;;;;;;;12.40;5.82;;;8.50;99.90;;;;;;2215587;64;20549;-70
2022/05/09 06:19:04;;;;;;;11.85;6.47;;;8.60;99.90;;;;;;2216013;64;20598;-67
2022/05/09 06:21:42;;;;;;;14.02;6.65;;;8.60;99.90;;;;;;2215132;64;20185;-71
2022/05/09 06:24:20;;;;;;;14.30;6.78;;;8.70;99.90;;;;;;2215597;64;20165;-70
2022/05/09 06:26:59;;;;;;;17.38;6.68;;;8.80;99.90;;;;;;2214834;64;20231;-70
2022/05/09 06:29:37;;;;;;;19.15;7.15;;;8.90;99.90;;;;;;2215939;64;20189;-68
2022/05/09 06:32:19;;;;;;;16.55;7.85;;;9.00;99.90;;;;;;2215138;64;20223;-75
2022/05/09 06:34:55;;;;;;;15.13;6.35;;;9.10;99.90;;;;;;2216106;64;20214;-69
2022/05/09 06:37:33;;;;;;;17.30;6.30;;;9.20;99.90;;;;;;2216218;64;20176;-69
2022/05/09 06:40:10;;;;;;;13.13;5.82;;;9.30;99.90;;;;;;2216109;64;20635;-69
2022/05/09 06:42:51;;;;;;;15.70;7.03;;;9.30;99.90;;;;;;2216256;64;20631;-69
2022/05/09 06:45:28;;;;;;;16.25;6.55;;;9.40;99.90;;;;;;2216115;64;20309;-69
2022/05/09 06:48:08;;;;;;;17.67;7.70;;;9.40;99.90;;;;;;2216242;64;20314;-68
2022/05/09 06:50:45;;;;;;;17.55;7.50;;;9.50;99.90;;;;;;2216092;64;20172;-69
2022/05/09 06:53:23;;;;;;;14.45;6.68;;;9.50;99.90;;;;;;2216176;64;20631;-68
2022/05/09 06:56:02;;;;;;;14.43;6.57;;;9.60;99.90;;;;;;2215884;64;20347;-68
2022/05/09 06:58:39;;;;;;;18.85;6.50;;;9.70;99.90;;;;;;2216179;64;20327;-68
2022/05/09 07:01:19;;;;;;;16.13;6.63;;;9.80;99.90;;;;;;2215976;64;20665;-68
2022/05/09 07:03:59;;;;;;;9.40;5.35;;;9.60;99.90;;;;;;2216262;64;20647;-69
2022/05/09 07:06:39;;;;;;;15.77;6.75;;;10.10;99.90;;;;;;2216049;64;20186;-69
2022/05/09 07:09:17;;;;;;;15.20;5.97;;;10.20;99.90;;;;;;2216148;64;20766;-68
2022/05/09 07:11:55;;;;;;;11.73;6.13;;;10.20;99.90;;;;;;2216039;64;20215;-69
2022/05/09 07:14:35;;;;;;;15.40;6.03;;;10.30;99.90;;;;;;2216036;64;20300;-68
2022/05/09 07:17:16;;;;;;;19.83;6.97;;;10.50;99.90;;;;;;2215953;64;20178;-68
2022/05/09 07:19:57;;;;;;;12.95;5.43;;;10.50;99.90;;;;;;2216025;64;20215;-68
2022/05/09 07:22:36;;;;;;;9.40;5.97;;;10.70;99.90;;;;;;2216143;64;20223;-68
2022/05/09 07:25:16;;;;;;;15.45;5.13;;;10.80;99.90;;;;;;2215971;64;20549;-68
2022/05/09 07:27:55;;;;;;;16.58;6.43;;;10.90;99.90;;;;;;2215977;64;20284;-68
2022/05/09 07:30:51;;;;;;;16.35;6.07;;;11.00;99.90;;;;;;2216019;64;20213;-68
2022/05/09 07:33:31;;;;;;;11.60;5.43;;;11.10;99.90;;;;;;2216037;64;20211;-69
2022/05/09 07:36:10;;;;;;;14.30;5.05;;;11.20;99.90;;;;;;2215997;64;20233;-68
2022/05/09 07:38:47;;;;;;;12.13;5.50;;;11.30;99.90;;;;;;2215935;64;20319;-68
2022/05/09 07:41:23;;;;;;;15.23;5.20;;;11.40;99.90;;;;;;2215893;64;20387;-68
2022/05/09 07:44:02;;;;;;;11.50;5.30;;;11.50;99.90;;;;;;2215845;64;20186;-69
2022/05/09 07:46:43;;;;;;;11.10;4.65;;;11.50;99.90;;;;;;2215855;64;20665;-68
2022/05/09 07:49:22;;;;;;;13.75;5.85;;;11.60;99.90;;;;;;2215906;64;20293;-68
2022/05/09 07:51:59;;;;;;;9.60;4.85;;;11.60;99.90;;;;;;2215986;64;20168;-69
2022/05/09 07:54:35;;;;;;;12.85;4.60;;;11.70;99.90;;;;;;2215665;64;20248;-67
2022/05/09 07:57:15;;;;;;;14.18;4.95;;;11.80;99.90;;;;;;2215773;64;20670;-68
2022/05/09 07:59:52;;;;;;;12.73;4.55;;;11.90;99.90;;;;;;2215871;64;20160;-69
2022/05/09 08:02:29;;;;;;;12.93;5.15;;;12.00;99.90;;;;;;2215779;64;20317;-69
2022/05/09 08:05:14;;;;;;;10.70;4.40;;;12.10;99.90;;;;;;2215763;64;20211;-68
2022/05/09 08:07:52;;;;;;;14.10;4.97;;;12.20;99.90;;;;;;2215738;64;20164;-69
2022/05/09 08:10:31;;;;;;;12.25;4.25;;;12.40;99.90;;;;;;2215738;64;20168;-68
2022/05/09 08:13:09;;;;;;;11.45;4.55;;;12.60;99.90;;;;;;2215762;64;20277;-68
2022/05/09 08:15:47;;;;;;;8.63;4.20;;;12.70;99.50;;;;;;2215772;64;20330;-68
2022/05/09 08:18:25;;;;;;;14.80;5.18;;;12.80;99.00;;;;;;2215738;64;20215;-67
2022/05/09 08:21:06;;;;;;;15.45;5.07;;;12.80;98.50;;;;;;2215683;64;20276;-67
2022/05/09 08:23:49;;;;;;;14.02;4.43;;;12.80;98.10;;;;;;2215672;64;20185;-69
2022/05/09 08:26:31;;;;;;;13.85;4.07;;;12.90;97.80;;;;;;2215674;64;20152;-68
2022/05/09 08:29:11;;;;;;;8.73;4.20;;;13.00;97.50;;;;;;2215525;64;20271;-68
2022/05/09 08:31:51;;;;;;;10.75;3.83;;;13.10;97.20;;;;;;2215641;64;20587;-68
2022/05/09 08:34:28;;;;;;;9.70;4.10;;;13.20;96.50;;;;;;2215612;64;20168;-70
2022/05/09 08:37:04;;;;;;;20.27;4.97;;;13.20;95.70;;;;;;2215634;64;20646;-68
2022/05/09 08:39:41;;;;;;;9.98;3.70;;;13.40;94.90;;;;;;2215559;64;20569;-68
2022/05/09 08:42:34;;;;;;;10.45;3.80;;;13.60;94.50;;;;;;2215652;64;20164;-69
2022/05/09 08:45:39;;;;;;;12.48;4.05;;;13.70;93.90;;;;;;2215686;64;20632;-68
2022/05/09 08:48:36;;;;;;;10.20;3.58;;;13.80;93.30;;;;;;2215543;64;20673;-68
2022/05/09 08:51:33;;;;;;;6.95;3.15;;;14.00;92.60;;;;;;2215575;64;20193;-68
2022/05/09 08:54:19;;;;;;;9.07;3.20;;;14.10;91.20;;;;;;2215415;64;20653;-68
2022/05/09 08:57:00;;;;;;;11.43;4.05;;;14.20;90.30;;;;;;2215500;64;20171;-68
2022/05/09 08:59:42;;;;;;;11.35;3.88;;;14.40;88.80;;;;;;2215485;64;20577;-68
2022/05/09 09:02:30;;;;;;;9.48;4.03;;;14.30;87.50;;;;;;2215507;64;20277;-68
2022/05/09 09:05:12;;;;;;;8.73;3.30;;;14.40;86.70;;;;;;2215459;64;20642;-68
2022/05/09 09:08:11;;;;;;;9.52;2.72;;;14.50;84.90;;;;;;2215450;64;20589;-67
2022/05/09 09:11:05;;;;;;;10.05;3.50;;;14.60;82.60;;;;;;2215489;64;20256;-69
2022/05/09 09:14:11;;;;;;;8.60;3.15;;;14.70;80.60;;;;;;2215375;64;20696;-68
2022/05/09 09:17:29;;;;;;;8.20;3.47;;;14.80;79.50;;;;;;2215484;64;20168;-67
2022/05/09 09:20:27;;;;;;;9.05;3.00;;;14.90;78.80;;;;;;2215515;64;20163;-67
2022/05/09 09:23:29;;;;;;;7.90;2.60;;;15.10;78.00;;;;;;2215488;64;20201;-68
2022/05/09 09:26:25;;;;;;;8.38;2.88;;;15.30;75.40;;;;;;2176470;65;20172;-67
2022/05/09 09:29:20;;;;;;;8.40;2.60;;;15.50;74.80;;;;;;2176477;65;20172;-68
2022/05/09 09:32:03;;;;;;;6.90;3.50;;;15.60;72.60;;;;;;2176031;65;20179;-68
2022/05/09 09:35:06;;;;;;;9.20;2.92;;;15.70;72.20;;;;;;2176482;65;20172;-68
2022/05/09 09:38:00;;;;;;;10.88;3.60;;;15.90;71.10;;;;;;2176405;65;20550;-68
2022/05/09 09:40:38;;;;;;;9.85;3.20;;;16.20;71.20;;;;;;2176216;65;20167;-68
2022/05/09 09:43:18;;;;;;;9.27;2.80;;;16.30;69.40;;;;;;2176228;65;20179;-69
2022/05/09 09:46:04;;;;;;;6.95;3.08;;;16.30;68.70;;;;;;2170712;65;20567;-68
2022/05/09 09:48:45;;;;;;;6.30;2.95;;;16.40;67.70;;;;;;2176367;65;20175;-67
2022/05/09 09:51:26;;;;;;;7.38;2.47;;;16.60;66.80;;;;;;2176322;65;20213;-73
2022/05/09 09:54:06;;;;;;;9.73;3.30;;;16.80;65.60;;;;;;2176233;65;20193;-72
2022/05/09 09:56:45;;;;;;;7.07;2.45;;;16.90;65.20;;;;;;2175942;65;20352;-71
2022/05/09 09:59:34;;;;;;;7.40;2.70;;;17.10;64.50;;;;;;2176348;65;20191;-70
2022/05/09 10:02:24;;;;;;;7.03;2.20;;;17.20;63.80;;;;;;2183866;64;20589;-70
2022/05/09 10:05:13;;;;;;;6.85;2.33;;;17.30;62.60;;;;;;2215084;64;20348;-67
2022/05/09 10:07:55;;;;;;;9.43;2.40;;;17.30;62.00;;;;;;2215088;64;20224;-68
2022/05/09 10:10:34;;;;;;;8.15;3.35;;;17.40;61.30;;;;;;2215036;64;20194;-67
2022/05/09 10:13:21;;;;;;;7.53;2.30;;;17.50;60.60;;;;;;2215021;64;20342;-68
2022/05/09 10:16:22;;;;;;;8.93;3.47;;;17.60;60.00;;;;;;2215060;64;20753;-68
2022/05/09 10:19:02;;;;;;;8.88;2.67;;;17.70;59.70;;;;;;2215016;64;20288;-68
2022/05/09 10:24:49;;;;;;;8.25;2.67;;;17.80;59.20;;;;;;2215060;64;20161;-67
2022/05/09 10:27:31;;;;;;;7.53;3.15;;;18.00;59.30;;;;;;2215037;64;20328;-68
2022/05/09 10:30:22;;;;;;;5.35;2.90;;;18.00;58.50;;;;;;2215015;64;20164;-67
2022/05/09 10:33:25;;;;;;;9.15;2.72;;;18.20;58.00;;;;;;2214995;64;20196;-68
2022/05/09 10:36:11;;;;;;;5.65;2.83;;;18.40;56.80;;;;;;2214961;64;20172;-68
2022/05/09 10:39:18;;;;;;;7.75;3.00;;;18.60;55.80;;;;;;2214941;64;20221;-68
2022/05/09 10:42:02;;;;;;;5.80;2.42;;;18.70;56.20;;;;;;2214965;64;20168;-68
2022/05/09 10:45:04;;;;;;;6.20;2.72;;;18.80;55.70;;;;;;2214968;64;20156;-68
2022/05/09 10:48:06;;;;;;;7.30;2.55;;;19.00;55.10;;;;;;2214930;64;20653;-68
2022/05/09 10:50:55;;;;;;;6.45;2.10;;;19.30;54.00;;;;;;2214921;64;20186;-70
2022/05/09 10:53:59;;;;;;;13.73;3.17;;;20.10;53.90;;;;;;2215599;64;20230;-67
2022/05/09 10:56:53;;;;;;;5.82;2.35;;;21.40;52.70;;;;;;2216031;64;20164;-68
2022/05/09 10:59:35;;;;;;;6.68;2.50;;;22.20;51.20;;;;;;2216221;64;20211;-69
2022/05/09 11:02:31;;;;;;;6.05;2.60;;;23.10;50.40;;;;;;2216117;64;20189;-68
2022/05/09 11:05:08;;;;;;;4.07;2.20;;;23.70;48.70;;;;;;2216165;64;20186;-68
2022/05/09 11:08:00;;;;;;;4.68;2.55;;;24.00;48.50;;;;;;2216054;64;20176;-68
2022/05/09 11:11:10;;;;;;;7.07;3.08;;;24.50;48.00;;;;;;2215494;64;20168;-67
2022/05/09 11:14:34;;;;;;;9.73;2.92;;;25.20;47.90;;;;;;2215977;64;20167;-69
2022/05/09 11:17:36;;;;;;;8.35;2.90;;;25.70;46.90;;;;;;2216038;64;20157;-69
2022/05/09 11:20:37;;;;;;;5.30;2.63;;;26.30;46.00;;;;;;2215976;64;20204;-68
2022/05/09 11:23:32;;;;;;;6.57;2.97;;;26.90;45.70;;;;;;2216051;64;20190;-68
2022/05/09 11:26:27;;;;;;;;;;;27.70;43.60;;;;;;2216467;64;20157;-68
2022/05/09 11:29:35;;;;;;;5.63;2.90;;;28.10;46.50;;;;;;2216028;64;20043;-68
2022/05/09 11:32:43;;;;;;;10.15;3.75;;;28.80;43.40;;;;;;2215942;64;20194;-69
2022/05/09 11:35:35;;;;;;;5.85;3.30;;;29.40;42.10;;;;;;2215928;64;20172;-68
2022/05/09 11:38:22;;;;;;;7.10;3.53;;;30.10;41.50;;;;;;2215988;64;20189;-68
2022/05/09 11:41:19;;;;;;;8.05;2.58;;;31.00;40.70;;;;;;2215874;64;20168;-69
2022/05/09 11:44:13;;;;;;;8.73;2.63;;;31.90;37.60;;;;;;2215931;64;20207;-69
2022/05/09 11:47:00;;;;;;;7.60;2.70;;;32.10;37.90;;;;;;2215926;64;20281;-68
2022/05/09 11:50:04;;;;;;;4.10;2.28;;;32.70;36.80;;;;;;2215801;64;20388;-69
2022/05/09 11:52:44;;;;;;;6.85;2.63;;;33.20;36.20;;;;;;2215859;64;20191;-68
2022/05/09 11:55:25;;;;;;;7.55;2.65;;;33.60;35.50;;;;;;2215680;64;20194;-69
2022/05/09 11:58:05;;;;;;;9.35;3.40;;;34.20;35.10;;;;;;2215874;64;20326;-69
2022/05/09 12:00:44;;;;;;;5.28;2.80;;;34.40;34.60;;;;;;2215830;64;20187;-68
2022/05/09 12:03:40;;;;;;;4.93;2.50;;;34.70;33.60;;;;;;2215852;64;20586;-68
2022/05/09 12:06:35;;;;;;;7.50;3.25;;;34.60;33.50;;;;;;2215603;64;20764;-69
2022/05/09 12:09:50;;;;;;;9.00;3.10;;;34.50;33.10;;;;;;2215809;64;20181;-68
2022/05/09 12:12:41;;;;;;;6.75;3.13;;;34.20;32.70;;;;;;2215748;64;20211;-69
2022/05/09 12:15:17;;;;;;;6.28;2.70;;;33.90;33.70;;;;;;2215677;64;20176;-70
2022/05/09 12:18:00;;;;;;;4.70;2.40;;;34.40;33.60;;;;;;2215719;64;20285;-69
2022/05/09 12:20:49;;;;;;;6.97;2.38;;;35.40;33.10;;;;;;2215703;64;20184;-70
2022/05/09 12:23:41;;;;;;;6.82;2.55;;;36.30;31.60;;;;;;2215735;64;20160;-69
2022/05/09 12:26:39;;;;;;;4.22;2.25;;;36.20;32.10;;;;;;2215684;64;20194;-68
2022/05/09 12:29:18;;;;;;;4.85;2.25;;;36.70;30.30;;;;;;2215646;64;20213;-68
2022/05/09 12:31:58;;;;;;;5.30;2.25;;;36.70;30.80;;;;;;2215597;64;20688;-69
2022/05/09 12:34:42;;;;;;;4.30;2.35;;;36.60;31.30;;;;;;2215635;64;20181;-70
2022/05/09 12:37:24;;;;;;;5.13;2.60;;;36.70;30.50;;;;;;2215563;64;20563;-69
2022/05/09 12:40:23;;;;;;;6.65;2.42;;;36.80;30.70;;;;;;2215561;64;20212;-70
2022/05/09 12:43:03;;;;;;;8.07;2.28;;;37.20;31.60;;;;;;2215567;64;20168;-69
2022/05/09 12:45:43;;;;;;;10.43;2.75;;;37.60;30.00;;;;;;2215587;64;20164;-69
2022/05/09 12:48:19;;;;;;;15.20;3.05;;;37.70;29.80;;;;;;2215575;64;20186;-70
2022/05/09 12:51:23;;;;;;;5.03;2.58;;;37.70;29.80;;;;;;2215552;64;20156;-70
2022/05/09 12:54:08;;;;;;;4.07;2.40;;;38.20;30.00;;;;;;2215567;64;20163;-68
2022/05/09 12:57:05;;;;;;;4.35;2.00;;;38.90;29.80;;;;;;2215554;64;20255;-69
2022/05/09 12:59:50;;;;;;;5.00;2.38;;;39.30;29.20;;;;;;2215040;64;20564;-69
2022/05/09 13:02:28;;;;;;;4.75;1.80;;;39.20;29.60;;;;;;2214492;64;20335;-69
2022/05/09 13:05:08;;;;;;;6.40;2.42;;;39.70;29.00;;;;;;2215499;64;20774;-69
2022/05/09 13:08:02;;;;;;;3.90;1.80;;;40.10;29.10;;;;;;2215408;64;20205;-69
2022/05/09 13:10:55;;;;;;;4.28;2.20;;;40.60;29.80;;;;;;2215446;64;20271;-69
2022/05/09 13:13:37;;;;;;;10.15;2.70;;;41.30;29.30;;;;;;2214701;64;20176;-70
2022/05/09 13:16:32;;;;;;;4.82;2.00;;;42.00;28.30;;;;;;2215238;64;20250;-70
2022/05/09 13:19:16;;;;;;;4.72;2.95;;;42.20;28.30;;;;;;2215444;64;20582;-69
2022/05/09 13:21:52;;;;;;;3.35;2.15;;;41.90;27.20;;;;;;2215362;64;20566;-69
2022/05/09 13:24:31;;;;;;;4.55;2.28;;;41.50;27.80;;;;;;2215478;64;20156;-70
2022/05/09 13:27:09;;;;;;;6.07;3.45;;;41.60;28.00;;;;;;2215364;64;20582;-70
2022/05/09 13:29:53;;;;;;;4.25;2.35;;;41.60;27.60;;;;;;2215251;64;20297;-69
2022/05/09 13:32:35;;;;;;;4.40;2.28;;;41.50;27.80;;;;;;2215256;64;20883;-69
2022/05/09 13:35:28;;;;;;;7.47;2.45;;;41.60;27.50;;;;;;2215306;64;20652;-70
2022/05/09 13:38:31;;;;;;;8.45;2.28;;;41.40;27.30;;;;;;2215284;64;20236;-70
2022/05/09 13:41:12;;;;;;;6.65;2.90;;;40.80;27.20;;;;;;2215344;64;20297;-69
2022/05/09 13:43:51;;;;;;;4.95;2.38;;;40.80;27.60;;;;;;2214942;64;20169;-70
2022/05/09 13:46:39;;;;;;;3.65;2.38;;;41.40;27.90;;;;;;2215155;64;20273;-69
2022/05/09 13:49:18;;;;;;;9.55;2.85;;;41.90;27.70;;;;;;2215045;64;20574;-70
2022/05/09 13:52:23;;;;;;;4.30;2.53;;;42.40;27.70;;;;;;2215159;64;20176;-70
2022/05/09 13:55:01;;;;;;;4.95;2.60;;;42.80;27.90;;;;;;2213655;64;20204;-69
2022/05/09 13:57:41;;;;;;;6.40;2.83;;;43.30;27.60;;;;;;2215192;64;20190;-70
2022/05/09 14:00:23;;;;;;;5.70;3.05;;;43.20;26.70;;;;;;2215194;64;20155;-70
2022/05/09 14:03:02;;;;;;;4.05;2.35;;;42.60;26.70;;;;;;2215130;64;20176;-70
2022/05/09 14:05:42;;;;;;;5.60;2.53;;;42.50;26.90;;;;;;2215155;64;20300;-69
2022/05/09 14:08:21;;;;;;;2.75;2.13;;;42.60;26.90;;;;;;2215098;64;20172;-70
2022/05/09 14:11:09;;;;;;;5.35;2.55;;;42.50;27.10;;;;;;2215023;64;20189;-70
2022/05/09 14:13:52;;;;;;;5.78;2.65;;;42.60;27.20;;;;;;2214596;64;20186;-70
2022/05/09 14:16:42;;;;;;;6.70;2.63;;;42.90;26.90;;;;;;2215044;64;20203;-69
2022/05/09 14:19:35;;;;;;;5.82;2.40;;;43.20;27.20;;;;;;2215052;64;20167;-70
2022/05/09 14:22:16;;;;;;;5.85;2.83;;;43.60;27.00;;;;;;2215003;64;20168;-69